Time;durP1;ratioP1;P1;durP2;ratioP2;P2;SDS_P1;SDS_P2;PMS_P1;PMS_P2;Temp;Humidity;BMP_temperature;BMP_pressure;BME280_temperature;BME280_humidity;BME280_pressure;Samples;Min_cycle;Max_cycle;Signal;HPM_P1;HPM_P2
2022/05/24 00:01:27;;;;;;;19.70;19.00;;;18.60;53.70;;;;;;5009340;28;20232;-84
2022/05/24 00:03:53;;;;;;;19.20;18.50;;;18.50;54.20;;;;;;5008721;28;20425;-84
2022/05/24 00:06:18;;;;;;;19.63;18.70;;;18.40;55.80;;;;;;5008386;28;20523;-84
2022/05/24 00:08:47;;;;;;;19.93;19.20;;;18.40;55.70;;;;;;5009282;28;20550;-85
2022/05/24 00:11:13;;;;;;;19.27;18.57;;;18.30;55.80;;;;;;4993987;28;20206;-85
2022/05/24 00:13:39;;;;;;;19.40;18.70;;;18.20;57.10;;;;;;4993807;28;20513;-85
2022/05/24 00:16:05;;;;;;;19.60;18.80;;;18.30;56.10;;;;;;4992405;28;20209;-85
2022/05/24 00:18:30;;;;;;;19.30;18.40;;;18.20;56.20;;;;;;5009112;28;20272;-85
2022/05/24 00:20:59;;;;;;;18.10;17.40;;;18.10;56.70;;;;;;5008976;28;20421;-85
2022/05/24 00:23:26;;;;;;;18.07;17.37;;;18.20;57.60;;;;;;5008752;28;20427;-85
2022/05/24 00:25:55;;;;;;;18.00;17.00;;;18.10;58.30;;;;;;5008382;28;20426;-85
2022/05/24 00:28:25;;;;;;;17.43;16.83;;;18.00;59.60;;;;;;5008784;28;20479;-85
2022/05/24 00:30:52;;;;;;;16.60;16.00;;;17.90;60.90;;;;;;4992239;28;20952;-85
2022/05/24 00:33:20;;;;;;;16.40;15.80;;;17.80;61.80;;;;;;5008750;28;20471;-85
2022/05/24 00:35:47;;;;;;;16.30;15.70;;;17.70;63.40;;;;;;5007646;28;20469;-85
2022/05/24 00:38:41;;;;;;;16.47;15.87;;;17.60;63.80;;;;;;5008720;28;20830;-85
2022/05/24 00:41:17;;;;;;;15.60;15.00;;;17.50;66.40;;;;;;5007409;28;20421;-85
2022/05/24 00:44:20;;;;;;;15.50;14.90;;;17.40;67.30;;;;;;4991995;28;20559;-84
2022/05/24 00:46:58;;;;;;;15.10;14.60;;;17.50;66.40;;;;;;5001881;28;20468;-84
2022/05/24 00:49:27;;;;;;;15.20;14.70;;;17.50;66.30;;;;;;5007787;28;20432;-85
2022/05/24 00:51:58;;;;;;;15.37;14.80;;;17.40;67.30;;;;;;5008719;28;20469;-85
2022/05/24 00:54:23;;;;;;;15.00;14.50;;;17.30;66.70;;;;;;5007837;28;20409;-85
2022/05/24 00:56:55;;;;;;;15.10;14.50;;;17.40;68.20;;;;;;5008360;28;20456;-84
2022/05/24 00:59:38;;;;;;;15.00;14.50;;;17.40;67.40;;;;;;5008530;28;20178;-84
2022/05/24 01:02:04;;;;;;;14.80;14.30;;;17.40;66.90;;;;;;5008238;28;20795;-85
2022/05/24 01:04:30;;;;;;;14.50;14.00;;;17.30;68.10;;;;;;5007829;28;20436;-84
2022/05/24 01:06:56;;;;;;;14.60;14.00;;;17.30;68.70;;;;;;5008214;28;20433;-85
2022/05/24 01:09:42;;;;;;;14.47;13.97;;;17.30;68.10;;;;;;5008263;28;20417;-84
2022/05/24 01:12:19;;;;;;;14.97;14.37;;;17.20;68.80;;;;;;4991754;28;20474;-85
2022/05/24 01:14:45;;;;;;;14.50;14.00;;;17.30;68.00;;;;;;5007491;28;20428;-84
2022/05/24 01:17:11;;;;;;;14.33;13.83;;;17.30;68.40;;;;;;5008403;28;20953;-84
2022/05/24 01:19:44;;;;;;;14.00;13.60;;;17.40;68.20;;;;;;5008083;28;20410;-84
2022/05/24 01:22:33;;;;;;;15.27;14.30;;;17.40;67.30;;;;;;5008050;28;20429;-84
2022/05/24 01:25:16;;;;;;;14.40;13.90;;;17.40;67.60;;;;;;4991267;28;20432;-85
2022/05/24 01:27:42;;;;;;;14.80;14.30;;;17.30;66.60;;;;;;5007299;28;20416;-85
2022/05/24 01:30:09;;;;;;;14.50;14.00;;;17.30;65.90;;;;;;5007412;28;20560;-84
2022/05/24 01:38:09;;;;;;;15.60;15.00;;;17.30;65.20;;;;;;4993253;28;20420;-84
2022/05/24 01:40:35;;;;;;;15.50;14.90;;;17.20;65.00;;;;;;5007776;28;20414;-85
2022/05/24 01:43:01;;;;;;;14.90;14.40;;;17.20;66.30;;;;;;5007672;28;21067;-85
2022/05/24 01:45:35;;;;;;;14.90;14.40;;;17.20;67.20;;;;;;5007499;28;20225;-85
2022/05/24 01:48:16;;;;;;;14.77;14.27;;;17.30;66.60;;;;;;5007152;28;20802;-84
2022/05/24 01:50:44;;;;;;;15.43;14.83;;;17.20;65.40;;;;;;5007567;28;20929;-84
2022/05/24 01:53:18;;;;;;;15.40;14.90;;;17.20;66.40;;;;;;5007808;28;20567;-84
2022/05/24 01:55:57;;;;;;;15.73;15.23;;;17.20;66.60;;;;;;5007483;28;20817;-84
2022/05/24 01:58:26;;;;;;;15.10;14.60;;;17.20;66.60;;;;;;5007921;28;20556;-85
2022/05/24 02:01:35;;;;;;;15.23;14.73;;;17.20;66.40;;;;;;5007686;28;20429;-85
2022/05/24 02:04:01;;;;;;;15.47;14.97;;;17.20;67.30;;;;;;5007467;28;20420;-84
2022/05/24 02:06:28;;;;;;;15.67;15.07;;;17.10;67.00;;;;;;5007235;28;20791;-84
2022/05/24 02:08:55;;;;;;;15.53;15.03;;;17.10;66.90;;;;;;5007524;28;20421;-84
2022/05/24 02:11:25;;;;;;;15.30;14.80;;;17.10;67.80;;;;;;5007562;28;20507;-84
2022/05/24 02:13:59;;;;;;;15.10;14.60;;;17.00;67.80;;;;;;5007762;28;20468;-84
2022/05/24 02:16:29;;;;;;;14.73;14.23;;;17.10;67.90;;;;;;5007207;28;20460;-84
2022/05/24 02:18:58;;;;;;;15.07;14.40;;;17.00;68.20;;;;;;4992175;28;20405;-84
2022/05/24 02:21:23;;;;;;;14.60;14.10;;;17.00;68.40;;;;;;5007518;28;20425;-84
2022/05/24 02:23:51;;;;;;;15.10;14.50;;;17.00;68.90;;;;;;5007178;28;20447;-84
2022/05/24 02:26:19;;;;;;;15.20;14.70;;;17.00;67.90;;;;;;5007068;28;20185;-84
2022/05/24 02:28:48;;;;;;;14.63;14.13;;;16.90;69.20;;;;;;5009735;28;20432;-85
2022/05/24 02:31:19;;;;;;;15.50;14.90;;;16.90;68.30;;;;;;5011017;28;20453;-84
2022/05/24 02:33:46;;;;;;;15.30;14.80;;;16.90;67.70;;;;;;5010783;28;20417;-85
2022/05/24 02:36:12;;;;;;;15.30;14.47;;;17.00;67.80;;;;;;5010525;28;20508;-85
2022/05/24 02:38:38;;;;;;;15.23;14.73;;;17.00;67.80;;;;;;5010383;28;20413;-84
2022/05/24 02:43:48;;;;;;;15.13;14.63;;;16.90;67.10;;;;;;4995936;28;20189;-85
2022/05/24 02:46:17;;;;;;;16.10;15.40;;;17.00;67.80;;;;;;5010492;28;20425;-83
2022/05/24 02:48:42;;;;;;;14.70;14.20;;;17.00;67.80;;;;;;5009997;28;20638;-84
2022/05/24 02:51:13;;;;;;;15.20;14.70;;;16.90;68.00;;;;;;5009878;28;20580;-84
2022/05/24 02:53:39;;;;;;;15.13;14.63;;;16.90;67.60;;;;;;5009798;28;20209;-84
2022/05/24 02:56:07;;;;;;;15.00;14.50;;;16.90;67.70;;;;;;5010183;28;20421;-84
2022/05/24 02:58:34;;;;;;;14.80;14.20;;;16.90;67.70;;;;;;5010470;28;20920;-84
2022/05/24 03:00:59;;;;;;;14.80;14.23;;;16.80;68.00;;;;;;5010482;28;20413;-84
2022/05/24 03:03:25;;;;;;;14.20;13.70;;;16.80;68.40;;;;;;5010337;28;20413;-84
2022/05/24 03:05:51;;;;;;;15.13;14.60;;;16.80;68.90;;;;;;4994848;28;20170;-85
2022/05/24 03:11:01;;;;;;;15.67;14.90;;;16.80;69.20;;;;;;4995568;28;20181;-84
2022/05/24 03:16:11;;;;;;;15.20;14.60;;;16.80;70.50;;;;;;4995023;28;20185;-84
2022/05/24 03:18:38;;;;;;;14.80;14.30;;;16.80;70.20;;;;;;4992879;28;20405;-84
2022/05/24 03:21:03;;;;;;;15.50;14.90;;;16.80;69.60;;;;;;4995141;28;20406;-84
2022/05/24 03:23:29;;;;;;;14.80;14.30;;;16.90;69.60;;;;;;5009199;28;20420;-84
2022/05/24 03:25:55;;;;;;;15.20;14.60;;;16.80;69.90;;;;;;5009601;28;20413;-84
2022/05/24 03:28:20;;;;;;;15.50;14.90;;;16.80;70.10;;;;;;5010018;28;20186;-84
2022/05/24 03:30:46;;;;;;;14.97;14.47;;;16.90;69.80;;;;;;5009193;28;20642;-84
2022/05/24 03:33:12;;;;;;;15.60;15.10;;;16.90;69.80;;;;;;5009788;28;20244;-84
2022/05/24 03:35:39;;;;;;;15.20;14.70;;;16.90;70.00;;;;;;5008794;28;20440;-84
2022/05/24 03:38:05;;;;;;;15.30;14.80;;;16.90;69.60;;;;;;5009579;28;20180;-85
2022/05/24 03:40:31;;;;;;;15.10;14.60;;;16.90;69.30;;;;;;5009678;28;20425;-84
2022/05/24 03:43:01;;;;;;;15.50;15.00;;;16.90;69.40;;;;;;5008864;28;20417;-85
2022/05/24 03:45:27;;;;;;;15.43;14.93;;;16.90;69.10;;;;;;5007485;28;20417;-84
2022/05/24 03:47:53;;;;;;;15.93;15.33;;;16.90;67.80;;;;;;5009568;28;20467;-84
2022/05/24 03:50:20;;;;;;;16.30;15.70;;;16.90;67.70;;;;;;4993650;28;21008;-84
2022/05/24 03:52:46;;;;;;;15.87;15.17;;;16.90;68.20;;;;;;5008686;28;20465;-84
2022/05/24 03:55:12;;;;;;;17.07;16.30;;;16.90;67.70;;;;;;5009070;28;20468;-84
2022/05/24 04:00:23;;;;;;;16.80;16.20;;;16.90;67.00;;;;;;4993448;28;20651;-84
2022/05/24 04:02:49;;;;;;;17.40;16.70;;;16.90;67.70;;;;;;5008434;28;20511;-84
2022/05/24 04:05:15;;;;;;;17.67;16.80;;;16.90;67.00;;;;;;5008175;28;20512;-84
2022/05/24 04:07:41;;;;;;;17.00;16.40;;;16.90;66.30;;;;;;5008589;28;20245;-84
2022/05/24 04:10:09;;;;;;;17.60;16.90;;;16.90;66.90;;;;;;5009197;28;20206;-84
2022/05/24 04:12:35;;;;;;;17.20;16.60;;;17.00;67.80;;;;;;5008229;28;20544;-84
2022/05/24 04:15:01;;;;;;;17.10;16.50;;;17.00;67.40;;;;;;5008067;28;20858;-84
2022/05/24 04:17:26;;;;;;;17.43;16.77;;;17.00;65.90;;;;;;5008940;28;20663;-84
2022/05/24 04:19:52;;;;;;;17.20;16.40;;;17.00;66.70;;;;;;5008272;28;20520;-84
2022/05/24 04:22:18;;;;;;;18.60;17.80;;;17.10;65.70;;;;;;5006574;28;20483;-84
2022/05/24 04:24:43;;;;;;;17.90;17.20;;;17.10;65.80;;;;;;5007859;28;20209;-84
2022/05/24 04:27:09;;;;;;;17.90;17.30;;;17.00;65.50;;;;;;5008908;28;20713;-84
2022/05/24 04:29:39;;;;;;;17.47;16.87;;;17.00;64.80;;;;;;5007945;28;20178;-84
2022/05/24 04:32:05;;;;;;;16.63;16.03;;;17.00;65.20;;;;;;5008422;28;20540;-84
2022/05/24 04:34:30;;;;;;;16.63;15.93;;;17.10;66.00;;;;;;5008197;28;20412;-84
2022/05/24 04:36:56;;;;;;;17.00;16.40;;;17.10;65.20;;;;;;5008770;28;20558;-84
2022/05/24 04:39:21;;;;;;;17.17;16.50;;;17.10;65.30;;;;;;5007997;28;20177;-84
2022/05/24 04:42:47;;;;;;;16.97;16.37;;;17.10;64.30;;;;;;5008645;28;20584;-84
2022/05/24 04:44:42;;;;;;;18.00;17.30;;;17.20;63.80;;;;;;4992653;28;20205;-84
2022/05/24 04:47:08;;;;;;;18.20;17.40;;;17.20;62.50;;;;;;5008250;28;20417;-84
2022/05/24 04:49:38;;;;;;;18.20;17.50;;;17.30;62.20;;;;;;5005181;28;20185;-84
2022/05/24 04:52:05;;;;;;;18.97;18.00;;;17.30;61.40;;;;;;5007328;28;20581;-83
2022/05/24 04:54:31;;;;;;;19.00;18.20;;;17.30;60.80;;;;;;4992307;28;20500;-84
2022/05/24 04:56:56;;;;;;;17.87;17.17;;;17.30;61.20;;;;;;4992016;28;20489;-84
2022/05/24 04:59:22;;;;;;;17.30;16.63;;;17.30;61.60;;;;;;5008303;28;20528;-84
2022/05/24 05:01:51;;;;;;;17.63;16.83;;;17.30;60.50;;;;;;5008308;28;20181;-84
2022/05/24 05:04:18;;;;;;;17.70;16.97;;;17.30;61.30;;;;;;5007541;28;20204;-84
2022/05/24 05:06:45;;;;;;;18.70;17.70;;;17.30;60.20;;;;;;5007115;28;20425;-84
2022/05/24 05:09:10;;;;;;;18.77;17.97;;;17.30;60.70;;;;;;5008239;28;20416;-84
2022/05/24 05:11:36;;;;;;;19.70;18.90;;;17.30;60.50;;;;;;5008014;28;20870;-84
2022/05/24 05:14:02;;;;;;;19.40;18.70;;;17.30;59.40;;;;;;5007590;28;20181;-85
2022/05/24 05:16:28;;;;;;;19.43;18.43;;;17.30;60.20;;;;;;5007201;28;20174;-85
2022/05/24 05:18:53;;;;;;;19.50;18.70;;;17.30;59.90;;;;;;5007534;28;20174;-82
2022/05/24 05:21:19;;;;;;;18.53;17.60;;;17.40;60.20;;;;;;4992896;28;20424;-83
2022/05/24 05:23:45;;;;;;;18.90;18.00;;;17.40;60.00;;;;;;5007831;28;20312;-83
2022/05/24 05:26:14;;;;;;;20.17;19.17;;;17.50;59.00;;;;;;5007745;28;20185;-83
2022/05/24 05:28:40;;;;;;;18.87;17.90;;;17.50;58.10;;;;;;5006656;28;20273;-83
2022/05/24 05:34:05;;;;;;;19.10;18.40;;;17.40;59.60;;;;;;5001079;28;20436;-84
2022/05/24 05:36:32;;;;;;;19.40;18.70;;;17.40;59.50;;;;;;5006951;28;20422;-84
2022/05/24 05:38:58;;;;;;;20.33;19.53;;;17.40;58.90;;;;;;5007383;28;20445;-83
2022/05/24 05:41:31;;;;;;;20.40;19.60;;;17.50;58.00;;;;;;5008005;28;20463;-83
2022/05/24 05:43:59;;;;;;;19.23;18.43;;;17.50;57.10;;;;;;5007322;28;20185;-84
2022/05/24 05:46:25;;;;;;;20.83;19.77;;;17.60;56.00;;;;;;5006994;28;20475;-83
2022/05/24 05:48:50;;;;;;;21.60;20.70;;;17.60;55.20;;;;;;5007179;28;20421;-84
2022/05/24 05:51:19;;;;;;;21.77;20.77;;;17.70;54.00;;;;;;5007102;28;21054;-83
2022/05/24 05:53:45;;;;;;;19.40;18.10;;;17.80;54.40;;;;;;5007317;28;20181;-83
2022/05/24 05:56:17;;;;;;;21.50;20.50;;;17.80;53.00;;;;;;5007125;28;20421;-83
2022/05/24 05:58:43;;;;;;;20.80;19.90;;;17.80;53.40;;;;;;5006827;28;20413;-83
2022/05/24 06:01:29;;;;;;;21.00;20.10;;;17.80;53.00;;;;;;5007760;28;20421;-84
2022/05/24 06:03:56;;;;;;;21.20;20.20;;;17.80;52.30;;;;;;5010836;28;20563;-83
2022/05/24 06:06:24;;;;;;;21.63;20.77;;;17.80;52.70;;;;;;4995065;28;20439;-83
2022/05/24 06:08:50;;;;;;;22.50;21.60;;;17.80;52.90;;;;;;5010706;28;20444;-83
2022/05/24 06:11:16;;;;;;;23.13;22.23;;;17.80;52.60;;;;;;5011410;28;20457;-84
2022/05/24 06:13:42;;;;;;;21.73;20.83;;;17.90;52.90;;;;;;5010953;28;20921;-83
2022/05/24 06:16:10;;;;;;;23.30;22.07;;;17.90;52.40;;;;;;5010958;28;20224;-83
2022/05/24 06:18:37;;;;;;;22.60;21.70;;;18.00;51.70;;;;;;5011244;28;20265;-83
2022/05/24 06:21:03;;;;;;;21.47;20.33;;;18.00;51.50;;;;;;4995166;28;20409;-85
2022/05/24 06:23:29;;;;;;;22.20;21.27;;;18.10;49.60;;;;;;5011041;28;20520;-85
2022/05/24 06:25:54;;;;;;;22.80;21.90;;;18.10;50.70;;;;;;5010202;28;20500;-85
2022/05/24 06:28:20;;;;;;;22.20;21.30;;;18.10;49.90;;;;;;5011096;28;20178;-85
2022/05/24 06:30:46;;;;;;;23.33;22.33;;;18.10;49.90;;;;;;5010920;28;20189;-84
2022/05/24 06:33:12;;;;;;;22.20;21.27;;;18.20;50.00;;;;;;5010089;28;20828;-84
2022/05/24 06:35:39;;;;;;;24.27;23.17;;;18.20;49.80;;;;;;5010679;28;20589;-84
2022/05/24 06:38:05;;;;;;;23.03;22.03;;;18.30;48.90;;;;;;4995413;28;20444;-84
2022/05/24 06:40:31;;;;;;;23.67;22.67;;;18.30;48.80;;;;;;5010301;28;20457;-84
2022/05/24 06:42:57;;;;;;;23.20;22.30;;;18.30;48.60;;;;;;5011196;28;20416;-84
2022/05/24 06:45:23;;;;;;;23.70;22.40;;;18.30;48.90;;;;;;5010594;28;20182;-84
2022/05/24 06:47:48;;;;;;;24.00;22.80;;;18.40;49.00;;;;;;5010079;28;20178;-84
2022/05/24 06:50:14;;;;;;;23.53;22.53;;;18.40;48.20;;;;;;5010765;28;20198;-84
2022/05/24 06:52:40;;;;;;;22.00;21.10;;;18.40;48.80;;;;;;5010503;28;20722;-83
2022/05/24 06:55:07;;;;;;;22.13;21.33;;;18.40;49.00;;;;;;5009537;28;20425;-85
2022/05/24 06:57:33;;;;;;;23.30;22.30;;;18.30;47.80;;;;;;5010482;28;20913;-85
2022/05/24 07:02:43;;;;;;;22.73;21.23;;;18.30;47.10;;;;;;4994743;28;20802;-85
2022/05/24 07:05:16;;;;;;;22.97;21.67;;;18.30;47.90;;;;;;5010069;28;20425;-85
2022/05/24 07:07:42;;;;;;;23.10;22.00;;;18.40;48.40;;;;;;5009589;28;20193;-84
2022/05/24 07:10:12;;;;;;;23.33;22.23;;;18.40;46.60;;;;;;5010462;28;20413;-85
2022/05/24 07:12:38;;;;;;;27.10;25.80;;;17.80;48.50;;;;;;5009752;28;20701;-82
2022/05/24 07:15:04;;;;;;;24.17;22.90;;;16.60;58.60;;;;;;5009826;28;20435;-83
2022/05/24 07:17:30;;;;;;;25.57;24.37;;;15.60;67.50;;;;;;5009464;28;20424;-84
2022/05/24 07:19:56;;;;;;;19.87;19.17;;;15.10;75.40;;;;;;5010442;28;20917;-84
2022/05/24 07:22:22;;;;;;;20.40;19.50;;;14.90;75.50;;;;;;5009557;28;20314;-84
2022/05/24 07:24:49;;;;;;;30.10;28.80;;;14.40;71.90;;;;;;5009037;28;20174;-84
2022/05/24 07:27:17;;;;;;;23.70;22.50;;;14.40;82.80;;;;;;5008971;28;20214;-84
2022/05/24 07:29:43;;;;;;;36.03;34.33;;;14.20;83.70;;;;;;5009908;28;20456;-84
2022/05/24 07:32:09;;;;;;;19.63;18.83;;;14.10;80.60;;;;;;5009738;28;20543;-84
2022/05/24 07:34:36;;;;;;;19.23;18.43;;;14.00;84.70;;;;;;5008185;28;20427;-83
2022/05/24 07:37:04;;;;;;;25.80;24.73;;;14.00;88.80;;;;;;5009222;28;20417;-84
2022/05/24 07:39:30;;;;;;;22.90;21.70;;;14.00;84.50;;;;;;5009768;28;20433;-83
2022/05/24 07:47:20;;;;;;;26.47;25.37;;;14.20;88.70;;;;;;4994637;28;20417;-82
2022/05/24 07:49:46;;;;;;;27.20;25.90;;;14.20;89.10;;;;;;5009462;28;20437;-82
2022/05/24 07:52:12;;;;;;;22.77;21.87;;;14.20;90.50;;;;;;5009331;28;20467;-82
2022/05/24 07:54:40;;;;;;;20.93;20.13;;;14.20;90.20;;;;;;5009288;28;20174;-83
2022/05/24 07:57:10;;;;;;;29.10;27.80;;;14.20;84.40;;;;;;5008092;28;20261;-83
2022/05/24 07:59:37;;;;;;;16.93;16.33;;;14.20;83.40;;;;;;5008821;28;20437;-83
2022/05/24 08:02:04;;;;;;;28.13;26.93;;;14.20;84.60;;;;;;5008759;28;20444;-83
2022/05/24 08:04:30;;;;;;;25.90;24.80;;;14.20;81.60;;;;;;5008326;28;20933;-83
2022/05/24 08:06:56;;;;;;;14.00;13.60;;;14.30;84.70;;;;;;5009416;28;20428;-83
2022/05/24 08:09:22;;;;;;;14.63;14.20;;;14.40;88.40;;;;;;5009418;28;20429;-83
2022/05/24 08:11:48;;;;;;;20.03;19.20;;;14.40;87.80;;;;;;5008503;28;20502;-84
2022/05/24 08:14:13;;;;;;;24.40;23.50;;;14.60;85.50;;;;;;5009154;28;20170;-84
2022/05/24 08:16:39;;;;;;;16.00;15.00;;;14.50;86.50;;;;;;5008074;28;20226;-84
2022/05/24 08:19:05;;;;;;;15.67;14.70;;;14.60;89.10;;;;;;4992742;28;20188;-84
2022/05/24 08:21:31;;;;;;;16.10;15.40;;;14.60;86.20;;;;;;5008690;28;20182;-84
2022/05/24 08:23:57;;;;;;;18.83;17.60;;;14.70;83.40;;;;;;5007667;28;20174;-84
2022/05/24 08:26:23;;;;;;;30.17;28.87;;;14.70;81.70;;;;;;5005727;28;20472;-84
2022/05/24 08:28:50;;;;;;;20.43;19.73;;;14.70;79.30;;;;;;5008836;28;20459;-84
2022/05/24 08:31:17;;;;;;;27.40;26.30;;;14.70;76.50;;;;;;5008746;28;20202;-84
2022/05/24 08:33:45;;;;;;;28.20;27.00;;;14.80;84.10;;;;;;5007416;28;20430;-84
2022/05/24 08:36:11;;;;;;;17.00;16.50;;;14.80;80.90;;;;;;5007683;28;20426;-83
2022/05/24 08:38:38;;;;;;;15.47;14.97;;;14.90;86.60;;;;;;5008640;28;20417;-84
2022/05/24 08:41:09;;;;;;;21.00;20.20;;;14.90;82.80;;;;;;5007971;28;20406;-84
2022/05/24 08:48:22;;;;;;;28.50;27.03;;;14.90;81.40;;;;;;5007872;28;20716;-84
2022/05/24 08:49:37;;;;;;;31.27;29.87;;;14.90;80.90;;;;;;4993128;28;20471;-84
2022/05/24 08:52:06;;;;;;;28.10;26.90;;;14.90;73.30;;;;;;5007767;28;20807;-83
2022/05/24 08:54:43;;;;;;;27.90;26.80;;;14.80;77.30;;;;;;5008066;28;20422;-83
2022/05/24 08:57:18;;;;;;;21.97;21.17;;;15.00;71.70;;;;;;5008135;28;20416;-84
2022/05/24 08:59:53;;;;;;;28.17;26.88;;;15.00;79.30;;;;;;5006134;28;20428;-83
2022/05/24 09:02:20;;;;;;;34.83;32.50;;;14.90;77.60;;;;;;5006916;28;20216;-83
2022/05/24 09:04:45;;;;;;;31.63;30.20;;;15.00;76.90;;;;;;5005970;28;20471;-83
2022/05/24 09:07:37;;;;;;;37.50;35.70;;;15.00;81.00;;;;;;5006975;28;20421;-83
2022/05/24 09:10:08;;;;;;;23.97;23.07;;;15.10;66.10;;;;;;5008047;28;20188;-84
2022/05/24 09:12:59;;;;;;;24.60;23.70;;;15.10;76.50;;;;;;5007820;28;20465;-83
2022/05/24 09:15:45;;;;;;;33.17;31.53;;;15.10;72.90;;;;;;4991426;28;20512;-83
2022/05/24 09:18:11;;;;;;;21.10;20.30;;;15.00;78.30;;;;;;5002973;28;20453;-83
2022/05/24 09:20:42;;;;;;;19.83;19.13;;;14.90;77.40;;;;;;4991068;28;20963;-83
2022/05/24 09:23:41;;;;;;;24.37;23.37;;;15.00;79.90;;;;;;5007325;28;20265;-83
2022/05/24 09:26:13;;;;;;;27.03;25.93;;;15.20;70.90;;;;;;5007512;28;20516;-83
2022/05/24 09:28:48;;;;;;;31.20;29.77;;;15.10;78.00;;;;;;5007338;28;20417;-83
2022/05/24 09:31:49;;;;;;;18.80;18.20;;;15.10;79.50;;;;;;4991675;28;20409;-83
2022/05/24 09:34:19;;;;;;;23.90;22.57;;;15.00;82.70;;;;;;4991593;28;20417;-83
2022/05/24 09:37:22;;;;;;;24.87;23.87;;;15.00;70.90;;;;;;4993522;28;20417;-83
2022/05/24 09:40:20;;;;;;;21.10;20.00;;;14.90;75.40;;;;;;5008333;28;20421;-83
2022/05/24 09:42:46;;;;;;;29.07;27.83;;;14.90;67.70;;;;;;5011795;28;20420;-83
2022/05/24 09:45:23;;;;;;;27.87;26.67;;;15.10;72.20;;;;;;5011753;28;20483;-83
2022/05/24 09:47:57;;;;;;;44.07;41.57;;;15.00;72.30;;;;;;5012103;28;20421;-83
2022/05/24 09:50:25;;;;;;;35.80;34.20;;;15.40;54.10;;;;;;5012257;28;20503;-85
2022/05/24 09:53:06;;;;;;;27.10;26.00;;;15.30;68.20;;;;;;5011832;28;20461;-84
2022/05/24 09:56:19;;;;;;;36.67;34.77;;;15.10;71.00;;;;;;4995304;28;20418;-86
2022/05/24 09:59:24;;;;;;;42.13;39.70;;;14.90;65.80;;;;;;4994351;28;20424;-85
2022/05/24 10:01:50;;;;;;;31.87;30.50;;;15.10;60.10;;;;;;4966848;28;20421;-85
2022/05/24 10:04:25;;;;;;;40.83;38.83;;;15.10;67.40;;;;;;4989798;28;20432;-84
2022/05/24 10:07:20;;;;;;;21.17;20.37;;;15.30;62.80;;;;;;4995273;28;20190;-83
2022/05/24 10:09:58;;;;;;;21.37;20.47;;;15.20;62.90;;;;;;5011639;28;20428;-83
2022/05/24 10:12:44;;;;;;;21.50;20.50;;;15.10;61.90;;;;;;4995201;28;20452;-84
2022/05/24 10:15:10;;;;;;;17.63;16.93;;;15.40;66.70;;;;;;4994961;28;20936;-84
2022/05/24 10:18:20;;;;;;;23.20;21.93;;;15.30;62.20;;;;;;4995058;28;20414;-83
2022/05/24 10:20:49;;;;;;;21.47;20.47;;;15.50;56.80;;;;;;5006049;28;20186;-83
2022/05/24 10:23:38;;;;;;;24.77;23.60;;;15.20;60.40;;;;;;4995108;28;20544;-83
2022/05/24 10:26:28;;;;;;;27.40;26.10;;;15.40;59.50;;;;;;4994560;28;20449;-83
2022/05/24 10:28:58;;;;;;;31.00;29.50;;;15.40;54.20;;;;;;5011101;28;20444;-84
2022/05/24 10:31:50;;;;;;;27.23;25.93;;;15.50;58.00;;;;;;5011107;28;20596;-84
2022/05/24 10:40:45;;;;;;;28.90;27.40;;;15.80;55.70;;;;;;4996181;28;20456;-85
2022/05/24 10:43:37;;;;;;;39.20;37.20;;;16.40;53.80;;;;;;5010732;28;20964;-84
2022/05/24 10:46:10;;;;;;;32.80;31.20;;;16.70;41.80;;;;;;4994566;28;20433;-84
2022/05/24 10:49:01;;;;;;;34.13;32.43;;;16.40;52.80;;;;;;5009884;28;20417;-84
2022/05/24 10:51:52;;;;;;;39.10;37.10;;;16.50;49.70;;;;;;4994287;28;20472;-84
2022/05/24 10:54:37;;;;;;;36.97;35.17;;;16.60;51.70;;;;;;4994438;28;20477;-83
2022/05/24 10:57:37;;;;;;;37.37;35.37;;;16.20;52.30;;;;;;4994481;28;20519;-84
2022/05/24 11:00:14;;;;;;;36.90;35.10;;;16.20;48.10;;;;;;5007291;28;20461;-83
2022/05/24 11:03:02;;;;;;;35.80;33.90;;;16.20;53.40;;;;;;5010395;28;20844;-84
2022/05/24 11:05:42;;;;;;;38.67;36.67;;;16.10;50.80;;;;;;5008739;28;20417;-84
2022/05/24 11:08:46;;;;;;;40.77;38.87;;;16.30;52.80;;;;;;5010328;28;20189;-85
2022/05/24 11:11:56;;;;;;;46.63;44.47;;;16.30;50.70;;;;;;4995074;28;20448;-85
2022/05/24 11:14:27;;;;;;;43.60;41.50;;;16.80;44.60;;;;;;5004842;28;21004;-85
2022/05/24 11:16:54;;;;;;;46.10;44.00;;;16.90;46.20;;;;;;4993797;28;20425;-84
2022/05/24 11:19:22;;;;;;;45.50;43.40;;;16.80;47.70;;;;;;5010448;28;20831;-85
2022/05/24 11:22:18;;;;;;;45.43;43.30;;;16.70;47.50;;;;;;4993765;28;20448;-85
2022/05/24 11:25:06;;;;;;;47.33;45.03;;;16.70;51.30;;;;;;4993554;28;20904;-85
2022/05/24 11:27:44;;;;;;;45.97;43.77;;;16.70;47.60;;;;;;5010249;28;20437;-84
2022/05/24 11:30:19;;;;;;;44.80;42.70;;;16.70;43.70;;;;;;5010227;28;20471;-84
2022/05/24 11:32:51;;;;;;;45.30;42.90;;;16.80;48.30;;;;;;4993817;28;20468;-83
2022/05/24 11:35:19;;;;;;;39.10;37.13;;;16.80;41.30;;;;;;5010018;28;20414;-84
2022/05/24 11:37:55;;;;;;;44.47;42.37;;;16.80;43.20;;;;;;4993564;28;20758;-84
2022/05/24 11:40:39;;;;;;;44.90;42.70;;;16.70;46.40;;;;;;5010106;28;20416;-85
2022/05/24 11:43:43;;;;;;;46.10;43.80;;;16.70;42.80;;;;;;5009867;28;20463;-85
2022/05/24 11:46:27;;;;;;;44.27;42.17;;;16.70;44.10;;;;;;4994397;28;20409;-84
2022/05/24 11:48:54;;;;;;;46.37;44.17;;;16.90;45.10;;;;;;4993790;28;20429;-84
2022/05/24 11:51:40;;;;;;;44.93;42.83;;;16.90;46.90;;;;;;5009696;28;20441;-85
2022/05/24 11:54:28;;;;;;;48.20;46.00;;;16.90;45.60;;;;;;5009776;28;20776;-85
2022/05/24 11:57:00;;;;;;;39.07;37.07;;;16.90;41.70;;;;;;4994566;28;20471;-85
2022/05/24 11:59:44;;;;;;;49.35;46.95;;;16.90;46.20;;;;;;4992630;28;20504;-85
2022/05/24 12:02:24;;;;;;;47.97;45.67;;;16.80;44.50;;;;;;4993348;28;20216;-84
2022/05/24 12:08:38;;;;;;;49.80;47.40;;;16.80;45.10;;;;;;4994559;28;20435;-84
2022/05/24 12:11:13;;;;;;;54.10;51.50;;;17.00;43.20;;;;;;5009462;28;20440;-84
2022/05/24 12:13:48;;;;;;;51.83;49.33;;;17.10;43.70;;;;;;4992865;28;20831;-85
2022/05/24 12:16:35;;;;;;;49.40;47.10;;;17.10;44.40;;;;;;4992684;28;20433;-85
2022/05/24 12:19:03;;;;;;;51.93;49.53;;;17.50;39.30;;;;;;4992863;28;20417;-86
2022/05/24 12:21:39;;;;;;;51.20;48.80;;;17.50;41.70;;;;;;5009054;28;20430;-85
2022/05/24 12:24:31;;;;;;;50.93;48.43;;;17.50;42.80;;;;;;4992488;28;20417;-85
2022/05/24 12:27:24;;;;;;;50.17;47.77;;;17.60;45.80;;;;;;4993692;28;20421;-86
2022/05/24 12:30:13;;;;;;;51.07;48.67;;;17.50;42.90;;;;;;5008996;28;20421;-85
2022/05/24 12:32:41;;;;;;;50.27;47.77;;;17.70;42.60;;;;;;5008132;28;20460;-85
2022/05/24 12:35:11;;;;;;;45.00;42.70;;;18.00;36.80;;;;;;5009471;28;20515;-84
2022/05/24 12:37:44;;;;;;;50.13;47.80;;;18.70;33.00;;;;;;5009455;28;20515;-85
2022/05/24 12:40:19;;;;;;;47.23;44.93;;;18.80;35.60;;;;;;5008191;28;20417;-85
2022/05/24 12:42:51;;;;;;;46.90;44.30;;;18.60;36.80;;;;;;4991459;28;20413;-85
2022/05/24 12:45:34;;;;;;;45.10;43.00;;;18.70;37.60;;;;;;4991962;28;20417;-85
2022/05/24 12:48:00;;;;;;;36.83;35.13;;;18.80;33.20;;;;;;5008737;28;20896;-84
2022/05/24 12:50:41;;;;;;;39.43;37.53;;;18.90;31.00;;;;;;5008549;28;20482;-85
2022/05/24 12:53:09;;;;;;;30.67;29.17;;;19.30;29.40;;;;;;4992008;28;20595;-85
2022/05/24 12:55:56;;;;;;;30.60;29.20;;;19.40;29.50;;;;;;5007892;28;20414;-86
2022/05/24 12:58:32;;;;;;;31.20;29.80;;;19.40;32.20;;;;;;5007875;28;20417;-84
2022/05/24 13:01:09;;;;;;;30.63;29.23;;;19.40;29.20;;;;;;4993387;28;20404;-84
2022/05/24 13:03:36;;;;;;;31.10;29.70;;;19.40;32.30;;;;;;5008273;28;20416;-84
2022/05/24 13:06:02;;;;;;;30.10;28.50;;;19.30;31.90;;;;;;5008308;28;20424;-84
2022/05/24 13:08:28;;;;;;;29.17;27.87;;;19.00;30.10;;;;;;5008360;28;20421;-84
2022/05/24 13:10:55;;;;;;;29.07;27.77;;;18.80;32.80;;;;;;5008018;28;20174;-84
2022/05/24 13:13:23;;;;;;;26.33;25.23;;;18.50;32.40;;;;;;5008117;28;20519;-85
2022/05/24 13:15:59;;;;;;;29.90;28.60;;;18.40;33.00;;;;;;4992146;28;20828;-84
2022/05/24 13:18:29;;;;;;;31.30;29.43;;;18.20;33.10;;;;;;5007625;28;20422;-84
2022/05/24 13:20:58;;;;;;;29.37;28.17;;;18.10;33.20;;;;;;4991760;28;20410;-84
2022/05/24 13:23:31;;;;;;;30.90;29.53;;;18.10;31.30;;;;;;5007605;28;20831;-84
2022/05/24 13:26:17;;;;;;;29.20;28.00;;;18.10;36.20;;;;;;5007715;28;20737;-84
2022/05/24 13:28:48;;;;;;;28.80;27.60;;;18.20;34.20;;;;;;5006980;28;20520;-84
2022/05/24 13:34:24;;;;;;;29.27;27.97;;;18.90;32.00;;;;;;4993174;28;20762;-85
2022/05/24 13:36:57;;;;;;;28.90;27.60;;;19.30;34.10;;;;;;5007382;28;20409;-85